createdAt,value
2017-10-28T00:00:04.138Z,0
2017-10-28T00:01:16.744Z,0
2017-10-28T00:02:29.368Z,0
2017-10-28T00:03:41.636Z,0
2017-10-28T00:04:54.249Z,0
2017-10-28T00:06:06.547Z,0
2017-10-28T00:07:19.128Z,0
2017-10-28T00:08:31.732Z,0
2017-10-28T00:09:44.013Z,0
2017-10-28T00:10:56.280Z,0
2017-10-28T00:12:08.901Z,0
2017-10-28T00:13:21.197Z,0
2017-10-28T00:14:33.486Z,0
2017-10-28T00:15:46.387Z,0
2017-10-28T00:16:58.037Z,0
2017-10-28T00:18:10.322Z,0
2017-10-28T00:19:22.953Z,0
2017-10-28T00:20:35.553Z,0
2017-10-28T00:21:47.849Z,0
2017-10-28T00:22:59.811Z,0
2017-10-28T00:24:12.128Z,0
2017-10-28T00:25:24.728Z,0
2017-10-28T00:26:37.029Z,0
2017-10-28T00:27:49.374Z,0
2017-10-28T00:29:02.017Z,0
2017-10-28T00:30:14.621Z,0
2017-10-28T00:31:26.564Z,0
2017-10-28T00:32:38.844Z,0
2017-10-28T00:33:50.826Z,0
2017-10-28T00:35:03.111Z,0
2017-10-28T00:36:15.381Z,0
2017-10-28T00:37:27.977Z,0
2017-10-28T00:38:40.256Z,0
2017-10-28T00:39:52.852Z,0
2017-10-28T00:41:05.442Z,0
2017-10-28T00:42:17.439Z,0
2017-10-28T00:43:30.062Z,0
2017-10-28T00:44:42.351Z,0
2017-10-28T00:45:54.629Z,0
2017-10-28T00:47:07.255Z,0
2017-10-28T00:48:20.169Z,0
2017-10-28T00:49:32.470Z,0
2017-10-28T00:50:45.087Z,0
2017-10-28T00:51:57.688Z,0
2017-10-28T00:53:09.972Z,0
2017-10-28T00:54:22.246Z,0
2017-10-28T00:55:34.861Z,0
2017-10-28T00:56:47.465Z,0
2017-10-28T00:57:59.764Z,0
2017-10-28T00:59:12.082Z,0
2017-10-28T01:00:24.719Z,0
2017-10-28T01:01:37.000Z,0
2017-10-28T01:02:49.263Z,0
2017-10-28T01:04:01.881Z,0
2017-10-28T01:05:14.481Z,0
2017-10-28T01:06:27.126Z,0
2017-10-28T01:07:39.426Z,0
2017-10-28T01:08:52.048Z,0
2017-10-28T01:10:04.971Z,0
2017-10-28T01:11:17.287Z,0
2017-10-28T01:12:29.598Z,0
2017-10-28T01:13:41.616Z,0
2017-10-28T01:14:54.267Z,0
2017-10-28T01:16:06.844Z,0
2017-10-28T01:17:18.484Z,0
2017-10-28T01:18:31.083Z,0
2017-10-28T01:19:43.357Z,0
2017-10-28T01:20:55.632Z,0
2017-10-28T01:22:08.223Z,0
2017-10-28T01:23:20.847Z,0
2017-10-28T01:24:33.439Z,0
2017-10-28T01:25:45.416Z,0
2017-10-28T01:26:58.012Z,0
2017-10-28T01:28:10.627Z,0
2017-10-28T01:29:23.218Z,0
2017-10-28T01:30:35.817Z,0
2017-10-28T01:31:48.413Z,0
2017-10-28T01:33:01.040Z,0
2017-10-28T01:34:13.326Z,0
2017-10-28T01:35:25.605Z,0
2017-10-28T01:36:37.891Z,0
2017-10-28T01:37:50.195Z,0
2017-10-28T01:39:02.818Z,0
2017-10-28T01:40:15.081Z,0
2017-10-28T01:41:27.335Z,0
2017-10-28T01:42:39.925Z,0
2017-10-28T01:43:52.549Z,0
2017-10-28T01:45:05.161Z,0
2017-10-28T01:46:17.138Z,0
2017-10-28T01:47:29.107Z,0
2017-10-28T01:48:41.402Z,0
2017-10-28T01:49:54.009Z,0
2017-10-28T01:51:06.640Z,0
2017-10-28T01:52:18.910Z,0
2017-10-28T01:53:31.536Z,0
2017-10-28T01:54:44.136Z,0
2017-10-28T01:55:56.431Z,0
2017-10-28T01:57:08.739Z,0
2017-10-28T01:58:21.347Z,0
2017-10-28T01:59:33.938Z,0
2017-10-28T02:00:46.226Z,0
2017-10-28T02:01:58.830Z,0
2017-10-28T02:03:11.443Z,0
2017-10-28T02:04:24.075Z,0
2017-10-28T02:05:36.391Z,0
2017-10-28T02:06:49.029Z,0
2017-10-28T02:08:01.610Z,0
2017-10-28T02:09:13.585Z,0
2017-10-28T02:10:26.167Z,0
2017-10-28T02:11:38.449Z,0
2017-10-28T02:12:51.086Z,0
2017-10-28T02:14:03.687Z,0
2017-10-28T02:15:16.615Z,0
2017-10-28T02:16:29.245Z,0
2017-10-28T02:17:41.829Z,0
2017-10-28T02:18:54.097Z,0
2017-10-28T02:20:06.410Z,0
2017-10-28T02:21:18.712Z,0
2017-10-28T02:22:30.978Z,0
2017-10-28T02:23:42.960Z,0
2017-10-28T02:24:55.577Z,0
2017-10-28T02:26:07.546Z,0
2017-10-28T02:27:19.845Z,0
2017-10-28T02:28:31.784Z,0
2017-10-28T02:29:44.363Z,0
2017-10-28T02:30:56.954Z,0
2017-10-28T02:32:09.253Z,0
2017-10-28T02:33:21.872Z,0
2017-10-28T02:34:34.163Z,0
2017-10-28T02:35:46.787Z,0
2017-10-28T02:36:59.404Z,0
2017-10-28T02:38:11.372Z,0
2017-10-28T02:39:24.001Z,0
2017-10-28T02:40:36.595Z,0
2017-10-28T02:41:49.203Z,0
2017-10-28T02:43:01.831Z,0
2017-10-28T02:44:14.453Z,0
2017-10-28T02:45:27.076Z,0
2017-10-28T02:46:39.070Z,0
2017-10-28T02:47:51.939Z,0
2017-10-28T02:49:04.528Z,0
2017-10-28T02:50:17.159Z,0
2017-10-28T02:51:29.782Z,0
2017-10-28T02:52:42.406Z,0
2017-10-28T02:53:54.720Z,0
2017-10-28T02:55:06.739Z,0
2017-10-28T02:56:19.030Z,0
2017-10-28T02:57:31.305Z,0
2017-10-28T02:58:43.845Z,0
2017-10-28T02:59:56.443Z,0
2017-10-28T03:01:08.772Z,0
2017-10-28T03:02:21.382Z,0
2017-10-28T03:03:33.986Z,0
2017-10-28T03:04:46.281Z,0
2017-10-28T03:05:58.552Z,0
2017-10-28T03:07:11.162Z,0
2017-10-28T03:08:23.739Z,0
2017-10-28T03:09:35.711Z,0
2017-10-28T03:10:48.010Z,0
2017-10-28T03:12:00.627Z,0
2017-10-28T03:13:13.226Z,0
2017-10-28T03:14:25.836Z,0
2017-10-28T03:15:38.438Z,0
2017-10-28T03:16:50.728Z,0
2017-10-28T03:18:03.034Z,0
2017-10-28T03:19:15.369Z,0
2017-10-28T03:20:27.347Z,0
2017-10-28T03:21:39.643Z,0
2017-10-28T03:22:51.942Z,0
2017-10-28T03:24:04.584Z,0
2017-10-28T03:25:17.181Z,0
2017-10-28T03:26:29.125Z,0
2017-10-28T03:27:41.421Z,0
2017-10-28T03:28:53.713Z,0
2017-10-28T03:30:05.665Z,0
2017-10-28T03:31:18.553Z,0
2017-10-28T03:32:30.828Z,0
2017-10-28T03:33:43.453Z,0
2017-10-28T03:34:55.737Z,0
2017-10-28T03:36:07.714Z,0
2017-10-28T03:37:20.328Z,0
2017-10-28T03:38:32.912Z,0
2017-10-28T03:39:45.208Z,0
2017-10-28T03:40:57.832Z,0
2017-10-28T03:42:10.122Z,0
2017-10-28T03:43:22.722Z,0
2017-10-28T03:44:35.035Z,0
2017-10-28T03:45:47.637Z,0
2017-10-28T03:46:59.944Z,0
2017-10-28T03:48:12.517Z,0
2017-10-28T03:49:24.462Z,0
2017-10-28T03:50:37.087Z,0
2017-10-28T03:51:49.663Z,0
2017-10-28T03:53:02.278Z,0
2017-10-28T03:54:14.876Z,0
2017-10-28T03:55:27.494Z,0
2017-10-28T03:56:39.775Z,0
2017-10-28T03:57:52.386Z,0
2017-10-28T03:59:04.661Z,0
2017-10-28T04:00:17.281Z,0
2017-10-28T04:01:29.902Z,0
2017-10-28T04:02:41.544Z,0
2017-10-28T04:03:54.139Z,0
2017-10-28T04:05:06.731Z,0
2017-10-28T04:06:19.335Z,0
2017-10-28T04:07:31.947Z,0
2017-10-28T04:08:44.251Z,0
2017-10-28T04:09:56.848Z,0
2017-10-28T04:11:09.192Z,0
2017-10-28T04:12:21.784Z,0
2017-10-28T04:13:34.383Z,0
2017-10-28T04:14:46.656Z,0
2017-10-28T04:15:58.938Z,0
2017-10-28T04:17:11.560Z,0
2017-10-28T04:18:24.163Z,0
2017-10-28T04:19:36.780Z,0
2017-10-28T04:20:49.060Z,0
2017-10-28T04:22:01.379Z,0
2017-10-28T04:23:14.002Z,0
2017-10-28T04:24:26.633Z,0
2017-10-28T04:25:39.483Z,0
2017-10-28T04:26:51.759Z,0
2017-10-28T04:28:04.381Z,0
2017-10-28T04:29:16.681Z,0
2017-10-28T04:30:29.296Z,0
2017-10-28T04:31:41.593Z,0
2017-10-28T04:32:54.213Z,0
2017-10-28T04:34:06.836Z,0
2017-10-28T04:35:19.172Z,0
2017-10-28T04:36:32.043Z,0
2017-10-28T04:37:44.011Z,0
2017-10-28T04:38:56.638Z,0
2017-10-28T04:40:08.934Z,0
2017-10-28T04:41:21.225Z,0
2017-10-28T04:42:33.528Z,0
2017-10-28T04:43:46.150Z,0
2017-10-28T04:44:58.445Z,0
2017-10-28T04:46:11.061Z,0
2017-10-28T04:47:23.354Z,0
2017-10-28T04:48:35.980Z,0
2017-10-28T04:49:48.297Z,0
2017-10-28T04:51:00.887Z,0
2017-10-28T04:52:13.473Z,0
2017-10-28T04:53:25.793Z,0
2017-10-28T04:54:38.110Z,0
2017-10-28T04:55:50.721Z,0
2017-10-28T04:57:03.349Z,0
2017-10-28T04:58:15.636Z,0
2017-10-28T04:59:28.259Z,0
2017-10-28T05:00:40.881Z,0
2017-10-28T05:01:53.184Z,0
2017-10-28T05:03:05.803Z,0
2017-10-28T05:04:18.424Z,0
2017-10-28T05:05:31.042Z,0
2017-10-28T05:06:43.338Z,0
2017-10-28T05:07:55.965Z,0
2017-10-28T05:09:08.848Z,0
2017-10-28T05:10:21.143Z,0
2017-10-28T05:11:33.445Z,0
2017-10-28T05:12:45.733Z,0
2017-10-28T05:13:58.365Z,0
2017-10-28T05:15:10.036Z,0
2017-10-28T05:16:22.631Z,0
2017-10-28T05:17:34.925Z,0
2017-10-28T05:18:47.515Z,0
2017-10-28T05:19:59.795Z,0
2017-10-28T05:21:12.091Z,0
2017-10-28T05:22:24.726Z,0
2017-10-28T05:23:37.329Z,0
2017-10-28T05:24:49.622Z,0
2017-10-28T05:26:01.918Z,0
2017-10-28T05:27:14.519Z,0
2017-10-28T05:28:26.788Z,0
2017-10-28T05:29:39.375Z,0
2017-10-28T05:30:51.679Z,0
2017-10-28T05:32:03.946Z,0
2017-10-28T05:33:16.571Z,0
2017-10-28T05:34:28.888Z,0
2017-10-28T05:35:41.738Z,0
2017-10-28T05:36:53.697Z,0
2017-10-28T05:38:05.976Z,0
2017-10-28T05:39:18.252Z,0
2017-10-28T05:40:30.884Z,0
2017-10-28T05:41:43.444Z,0
2017-10-28T05:42:55.724Z,0
2017-10-28T05:44:08.006Z,0
2017-10-28T05:45:20.290Z,0
2017-10-28T05:46:32.573Z,0
2017-10-28T05:47:45.183Z,0
2017-10-28T05:48:57.786Z,0
2017-10-28T05:50:10.058Z,0
2017-10-28T05:51:22.336Z,0
2017-10-28T05:52:34.975Z,5
2017-10-28T05:53:47.272Z,5
2017-10-28T05:54:59.882Z,5
2017-10-28T05:56:12.478Z,5
2017-10-28T05:57:25.097Z,5
2017-10-28T05:58:37.053Z,5
2017-10-28T05:59:49.689Z,5
2017-10-28T06:01:02.293Z,5
2017-10-28T06:02:14.892Z,10
2017-10-28T06:03:27.091Z,10
2017-10-28T06:04:39.712Z,10
2017-10-28T06:05:52.003Z,10
2017-10-28T06:07:04.596Z,10
2017-10-28T06:08:17.208Z,15
2017-10-28T06:09:29.520Z,10
2017-10-28T06:10:41.485Z,15
2017-10-28T06:11:53.448Z,15
2017-10-28T06:13:06.042Z,15
2017-10-28T06:14:18.655Z,20
2017-10-28T06:15:30.964Z,20
2017-10-28T06:16:43.253Z,25
2017-10-28T06:17:55.515Z,25
2017-10-28T06:19:07.810Z,20
2017-10-28T06:20:20.428Z,25
2017-10-28T06:21:33.045Z,35
2017-10-28T06:22:45.674Z,35
2017-10-28T06:23:57.948Z,30
2017-10-28T06:25:10.836Z,40
2017-10-28T06:26:23.429Z,40
2017-10-28T06:27:36.046Z,45
2017-10-28T06:28:48.344Z,50
2017-10-28T06:30:00.978Z,60
2017-10-28T06:31:12.929Z,50
2017-10-28T06:32:25.204Z,60
2017-10-28T06:33:37.801Z,55
2017-10-28T06:34:50.423Z,60
2017-10-28T06:36:03.047Z,55
2017-10-28T06:37:15.635Z,60
2017-10-28T06:38:28.281Z,60
2017-10-28T06:39:40.594Z,55
2017-10-28T06:40:52.897Z,65
2017-10-28T06:42:04.872Z,70
2017-10-28T06:43:16.820Z,70
2017-10-28T06:44:29.411Z,65
2017-10-28T06:45:42.011Z,50
2017-10-28T06:46:54.303Z,55
2017-10-28T06:48:06.603Z,60
2017-10-28T06:49:18.927Z,75
2017-10-28T06:50:31.533Z,90
2017-10-28T06:51:43.833Z,95
2017-10-28T06:52:56.423Z,105
2017-10-28T06:54:09.027Z,105
2017-10-28T06:55:21.327Z,110
2017-10-28T06:56:33.622Z,85
2017-10-28T06:57:45.616Z,70
2017-10-28T06:58:57.903Z,70
2017-10-28T07:00:10.513Z,80
2017-10-28T07:01:23.154Z,75
2017-10-28T07:02:35.444Z,70
2017-10-28T07:03:48.044Z,70
2017-10-28T07:05:00.654Z,85
2017-10-28T07:06:13.260Z,75
2017-10-28T07:07:25.912Z,75
2017-10-28T07:08:38.542Z,75
2017-10-28T07:09:50.843Z,70
2017-10-28T07:11:03.140Z,75
2017-10-28T07:12:15.427Z,70
2017-10-28T07:13:28.034Z,80
2017-10-28T07:14:39.643Z,65
2017-10-28T07:15:51.900Z,55
2017-10-28T07:17:04.196Z,55
2017-10-28T07:18:16.463Z,60
2017-10-28T07:19:28.713Z,55
2017-10-28T07:20:41.326Z,80
2017-10-28T07:21:52.942Z,105
2017-10-28T07:23:05.550Z,95
2017-10-28T07:24:18.170Z,100
2017-10-28T07:25:30.154Z,130
2017-10-28T07:26:42.736Z,150
2017-10-28T07:27:55.028Z,135
2017-10-28T07:29:07.330Z,125
2017-10-28T07:30:19.950Z,135
2017-10-28T07:31:32.247Z,125
2017-10-28T07:32:44.855Z,100
2017-10-28T07:33:56.816Z,105
2017-10-28T07:35:09.422Z,110
2017-10-28T07:36:22.048Z,120
2017-10-28T07:37:34.672Z,90
2017-10-28T07:38:47.286Z,80
2017-10-28T07:39:59.902Z,80
2017-10-28T07:41:11.860Z,125
2017-10-28T07:42:24.500Z,200
2017-10-28T07:43:37.089Z,210
2017-10-28T07:44:49.741Z,220
2017-10-28T07:46:02.356Z,205
2017-10-28T07:47:14.637Z,225
2017-10-28T07:48:26.935Z,260
2017-10-28T07:49:39.550Z,190
2017-10-28T07:50:52.173Z,150
2017-10-28T07:52:04.469Z,150
2017-10-28T07:53:17.074Z,120
2017-10-28T07:54:29.383Z,80
2017-10-28T07:55:42.007Z,105
2017-10-28T07:56:54.310Z,120
2017-10-28T07:58:06.921Z,175
2017-10-28T07:59:19.517Z,205
2017-10-28T08:00:32.111Z,135
2017-10-28T08:01:44.426Z,190
2017-10-28T08:02:57.301Z,215
2017-10-28T08:04:09.275Z,230
2017-10-28T08:05:21.894Z,155
2017-10-28T08:06:34.497Z,180
2017-10-28T08:07:46.488Z,165
2017-10-28T08:08:59.108Z,125
2017-10-28T08:10:11.429Z,155
2017-10-28T08:11:24.047Z,95
2017-10-28T08:12:36.669Z,85
2017-10-28T08:13:49.283Z,90
2017-10-28T08:15:01.563Z,100
2017-10-28T08:16:13.549Z,85
2017-10-28T08:17:25.824Z,130
2017-10-28T08:18:38.099Z,115
2017-10-28T08:19:50.419Z,70
2017-10-28T08:21:02.690Z,80
2017-10-28T08:22:15.308Z,80
2017-10-28T08:23:27.583Z,70
2017-10-28T08:24:40.200Z,75
2017-10-28T08:25:52.786Z,80
2017-10-28T08:27:04.767Z,65
2017-10-28T08:28:17.085Z,75
2017-10-28T08:29:29.677Z,70
2017-10-28T08:30:41.981Z,45
2017-10-28T08:31:54.598Z,60
2017-10-28T08:33:06.538Z,95
2017-10-28T08:34:18.838Z,120
2017-10-28T08:35:31.439Z,145
2017-10-28T08:36:43.386Z,170
2017-10-28T08:37:56.024Z,195
2017-10-28T08:39:08.625Z,170
2017-10-28T08:40:20.920Z,205
2017-10-28T08:41:33.534Z,165
2017-10-28T08:42:46.157Z,155
2017-10-28T08:43:58.746Z,180
2017-10-28T08:45:11.353Z,195
2017-10-28T08:46:23.973Z,240
2017-10-28T08:47:35.940Z,185
2017-10-28T08:48:48.548Z,115
2017-10-28T08:50:00.810Z,155
2017-10-28T08:51:13.129Z,175
2017-10-28T08:52:25.426Z,200
2017-10-28T08:53:38.018Z,125
2017-10-28T08:54:50.310Z,145
2017-10-28T08:56:02.939Z,165
2017-10-28T08:57:15.560Z,160
2017-10-28T08:58:28.205Z,215
2017-10-28T08:59:39.847Z,125
2017-10-28T09:00:52.150Z,105
2017-10-28T09:02:04.766Z,95
2017-10-28T09:03:17.035Z,140
2017-10-28T09:04:29.622Z,115
2017-10-28T09:05:41.285Z,110
2017-10-28T09:06:53.588Z,95
2017-10-28T09:08:06.197Z,100
2017-10-28T09:09:18.791Z,145
2017-10-28T09:10:31.087Z,160
2017-10-28T09:11:43.706Z,110
2017-10-28T09:12:55.979Z,100
2017-10-28T09:14:07.949Z,90
2017-10-28T09:15:20.569Z,115
2017-10-28T09:16:33.186Z,125
2017-10-28T09:17:45.792Z,155
2017-10-28T09:18:58.659Z,170
2017-10-28T09:20:11.265Z,195
2017-10-28T09:21:23.544Z,200
2017-10-28T09:22:36.198Z,205
2017-10-28T09:23:48.809Z,265
2017-10-28T09:25:00.755Z,330
2017-10-28T09:26:12.400Z,345
2017-10-28T09:27:25.019Z,340
2017-10-28T09:28:37.646Z,310
2017-10-28T09:29:50.217Z,280
2017-10-28T09:31:02.833Z,240
2017-10-28T09:32:15.107Z,260
2017-10-28T09:33:27.726Z,265
2017-10-28T09:34:40.337Z,245
2017-10-28T09:35:52.970Z,230
2017-10-28T09:37:05.588Z,160
2017-10-28T09:38:17.553Z,160
2017-10-28T09:39:29.531Z,150
2017-10-28T09:40:42.166Z,205
2017-10-28T09:41:54.774Z,220
2017-10-28T09:43:07.383Z,265
2017-10-28T09:44:19.631Z,230
2017-10-28T09:45:31.913Z,220
2017-10-28T09:46:44.533Z,275
2017-10-28T09:47:57.152Z,315
2017-10-28T09:49:09.772Z,250
2017-10-28T09:50:22.068Z,225
2017-10-28T09:51:34.362Z,215
2017-10-28T09:52:46.658Z,225
2017-10-28T09:53:59.280Z,250
2017-10-28T09:55:11.901Z,245
2017-10-28T09:56:24.517Z,210
2017-10-28T09:57:36.486Z,220
2017-10-28T09:58:48.763Z,160
2017-10-28T10:00:01.350Z,140
2017-10-28T10:01:13.678Z,170
2017-10-28T10:02:25.967Z,150
2017-10-28T10:03:38.623Z,155
2017-10-28T10:04:51.244Z,150
2017-10-28T10:06:03.886Z,140
2017-10-28T10:07:16.510Z,100
2017-10-28T10:08:28.465Z,135
2017-10-28T10:09:41.074Z,130
2017-10-28T10:10:53.694Z,140
2017-10-28T10:12:06.311Z,125
2017-10-28T10:13:18.931Z,135
2017-10-28T10:14:31.231Z,115
2017-10-28T10:15:43.525Z,90
2017-10-28T10:16:55.821Z,105
2017-10-28T10:18:07.809Z,115
2017-10-28T10:19:20.455Z,90
2017-10-28T10:20:32.405Z,105
2017-10-28T10:21:45.025Z,85
2017-10-28T10:22:57.326Z,85
2017-10-28T10:24:09.617Z,80
2017-10-28T10:25:22.233Z,105
2017-10-28T10:26:34.532Z,105
2017-10-28T10:27:46.810Z,90
2017-10-28T10:28:59.425Z,105
2017-10-28T10:30:12.024Z,100
2017-10-28T10:31:24.334Z,120
2017-10-28T10:32:36.587Z,140
2017-10-28T10:33:49.185Z,150
2017-10-28T10:35:01.179Z,200
2017-10-28T10:36:13.465Z,205
2017-10-28T10:37:26.098Z,195
2017-10-28T10:38:38.717Z,285
2017-10-28T10:39:51.014Z,300
2017-10-28T10:41:03.634Z,275
2017-10-28T10:42:15.929Z,240
2017-10-28T10:43:28.526Z,200
2017-10-28T10:44:41.176Z,235
2017-10-28T10:45:53.767Z,240
2017-10-28T10:47:06.368Z,290
2017-10-28T10:48:19.005Z,205
2017-10-28T10:49:31.609Z,305
2017-10-28T10:50:43.925Z,400
2017-10-28T10:51:56.542Z,330
2017-10-28T10:53:08.816Z,255
2017-10-28T10:54:21.100Z,215
2017-10-28T10:55:33.383Z,260
2017-10-28T10:56:45.682Z,210
2017-10-28T10:57:58.299Z,190
2017-10-28T10:59:10.594Z,225
2017-10-28T11:00:23.242Z,295
2017-10-28T11:01:35.886Z,265
2017-10-28T11:02:48.481Z,215
2017-10-28T11:04:00.779Z,195
2017-10-28T11:05:13.364Z,195
2017-10-28T11:06:25.671Z,170
2017-10-28T11:07:37.639Z,160
2017-10-28T11:08:50.252Z,150
2017-10-28T11:10:02.908Z,140
2017-10-28T11:11:15.547Z,150
2017-10-28T11:12:27.839Z,175
2017-10-28T11:13:40.467Z,190
2017-10-28T11:14:52.437Z,185
2017-10-28T11:16:04.732Z,215
2017-10-28T11:17:17.343Z,175
2017-10-28T11:18:29.974Z,200
2017-10-28T11:19:42.266Z,125
2017-10-28T11:20:54.879Z,155
2017-10-28T11:22:07.161Z,140
2017-10-28T11:23:19.454Z,165
2017-10-28T11:24:32.078Z,185
2017-10-28T11:25:44.073Z,225
2017-10-28T11:26:56.032Z,220
2017-10-28T11:28:08.082Z,200
2017-10-28T11:29:21.010Z,155
2017-10-28T11:30:33.628Z,155
2017-10-28T11:31:45.580Z,160
2017-10-28T11:32:57.561Z,150
2017-10-28T11:34:09.831Z,155
2017-10-28T11:35:22.445Z,175
2017-10-28T11:36:35.087Z,145
2017-10-28T11:37:47.698Z,100
2017-10-28T11:38:59.993Z,155
2017-10-28T11:40:12.539Z,170
2017-10-28T11:41:25.144Z,190
2017-10-28T11:42:37.115Z,185
2017-10-28T11:43:49.756Z,200
2017-10-28T11:45:02.044Z,165
2017-10-28T11:46:14.324Z,210
2017-10-28T11:47:26.284Z,200
2017-10-28T11:48:38.879Z,160
2017-10-28T11:49:50.833Z,205
2017-10-28T11:51:03.433Z,230
2017-10-28T11:52:15.392Z,295
2017-10-28T11:53:28.012Z,340
2017-10-28T11:54:40.295Z,290
2017-10-28T11:55:52.257Z,200
2017-10-28T11:57:04.852Z,235
2017-10-28T11:58:17.166Z,200
2017-10-28T11:59:29.444Z,150
2017-10-28T12:00:42.094Z,180
2017-10-28T12:01:54.710Z,190
2017-10-28T12:03:07.006Z,150
2017-10-28T12:04:19.284Z,160
2017-10-28T12:05:31.907Z,170
2017-10-28T12:06:44.189Z,105
2017-10-28T12:07:56.813Z,155
2017-10-28T12:09:09.445Z,190
2017-10-28T12:10:22.062Z,125
2017-10-28T12:11:34.708Z,100
2017-10-28T12:12:47.328Z,135
2017-10-28T12:13:59.598Z,180
2017-10-28T12:15:11.894Z,150
2017-10-28T12:16:24.163Z,135
2017-10-28T12:17:36.768Z,155
2017-10-28T12:18:49.075Z,185
2017-10-28T12:20:01.066Z,200
2017-10-28T12:21:13.370Z,205
2017-10-28T12:22:25.390Z,245
2017-10-28T12:23:37.693Z,240
2017-10-28T12:24:50.312Z,315
2017-10-28T12:26:02.631Z,320
2017-10-28T12:27:15.248Z,325
2017-10-28T12:28:27.865Z,355
2017-10-28T12:29:40.492Z,390
2017-10-28T12:30:53.119Z,430
2017-10-28T12:32:05.456Z,415
2017-10-28T12:33:18.050Z,435
2017-10-28T12:34:30.667Z,355
2017-10-28T12:35:42.967Z,295
2017-10-28T12:36:55.567Z,295
2017-10-28T12:38:07.862Z,335
2017-10-28T12:39:20.463Z,345
2017-10-28T12:40:33.108Z,365
2017-10-28T12:41:45.399Z,315
2017-10-28T12:42:57.659Z,290
2017-10-28T12:44:10.290Z,215
2017-10-28T12:45:22.892Z,255
2017-10-28T12:46:34.879Z,255
2017-10-28T12:47:47.476Z,280
2017-10-28T12:49:00.075Z,270
2017-10-28T12:50:12.036Z,240
2017-10-28T12:51:24.340Z,220
2017-10-28T12:52:36.631Z,175
2017-10-28T12:53:48.921Z,135
2017-10-28T12:55:01.198Z,150
2017-10-28T12:56:13.793Z,180
2017-10-28T12:57:26.412Z,240
2017-10-28T12:58:38.713Z,220
2017-10-28T12:59:50.998Z,185
2017-10-28T13:01:03.626Z,155
2017-10-28T13:02:15.921Z,200
2017-10-28T13:03:28.248Z,170
2017-10-28T13:04:40.847Z,175
2017-10-28T13:05:53.464Z,145
2017-10-28T13:07:06.071Z,150
2017-10-28T13:08:18.677Z,155
2017-10-28T13:09:31.275Z,175
2017-10-28T13:10:43.570Z,175
2017-10-28T13:11:55.565Z,135
2017-10-28T13:13:08.162Z,125
2017-10-28T13:14:20.458Z,100
2017-10-28T13:15:32.791Z,85
2017-10-28T13:16:45.398Z,90
2017-10-28T13:17:58.265Z,85
2017-10-28T13:19:10.894Z,75
2017-10-28T13:20:23.207Z,65
2017-10-28T13:21:35.826Z,70
2017-10-28T13:22:48.443Z,75
2017-10-28T13:24:01.071Z,75
2017-10-28T13:25:12.715Z,95
2017-10-28T13:26:25.336Z,80
2017-10-28T13:27:37.957Z,65
2017-10-28T13:28:50.579Z,55
2017-10-28T13:30:03.220Z,55
2017-10-28T13:31:15.517Z,65
2017-10-28T13:32:28.096Z,65
2017-10-28T13:33:40.388Z,85
2017-10-28T13:34:53.004Z,85
2017-10-28T13:36:05.292Z,75
2017-10-28T13:37:17.250Z,70
2017-10-28T13:38:29.873Z,85
2017-10-28T13:39:42.485Z,85
2017-10-28T13:40:55.107Z,80
2017-10-28T13:42:06.778Z,65
2017-10-28T13:43:19.083Z,50
2017-10-28T13:44:31.698Z,45
2017-10-28T13:45:43.993Z,40
2017-10-28T13:46:56.317Z,35
2017-10-28T13:48:08.911Z,35
2017-10-28T13:49:21.197Z,35
2017-10-28T13:50:32.823Z,50
2017-10-28T13:51:45.417Z,65
2017-10-28T13:52:57.392Z,75
2017-10-28T13:54:09.988Z,65
2017-10-28T13:55:22.608Z,65
2017-10-28T13:56:34.271Z,65
2017-10-28T13:57:46.874Z,65
2017-10-28T13:58:59.470Z,80
2017-10-28T14:00:12.071Z,60
2017-10-28T14:01:24.692Z,65
2017-10-28T14:02:37.310Z,60
2017-10-28T14:03:49.595Z,65
2017-10-28T14:05:02.225Z,80
2017-10-28T14:06:14.191Z,80
2017-10-28T14:07:26.817Z,75
2017-10-28T14:08:39.457Z,65
2017-10-28T14:09:52.110Z,100
2017-10-28T14:11:04.419Z,95
2017-10-28T14:12:16.703Z,90
2017-10-28T14:13:28.991Z,70
2017-10-28T14:14:40.938Z,75
2017-10-28T14:15:53.557Z,75
2017-10-28T14:17:06.183Z,70
2017-10-28T14:18:18.152Z,75
2017-10-28T14:19:30.771Z,85
2017-10-28T14:20:43.385Z,60
2017-10-28T14:21:56.002Z,65
2017-10-28T14:23:07.956Z,50
2017-10-28T14:24:20.597Z,50
2017-10-28T14:25:32.876Z,70
2017-10-28T14:26:45.484Z,70
2017-10-28T14:27:57.786Z,60
2017-10-28T14:29:09.782Z,85
2017-10-28T14:30:22.418Z,110
2017-10-28T14:31:35.045Z,95
2017-10-28T14:32:47.662Z,70
2017-10-28T14:34:00.243Z,90
2017-10-28T14:35:12.542Z,65
2017-10-28T14:36:24.500Z,45
2017-10-28T14:37:36.803Z,55
2017-10-28T14:38:49.423Z,45
2017-10-28T14:40:01.695Z,45
2017-10-28T14:41:13.664Z,65
2017-10-28T14:42:26.281Z,55
2017-10-28T14:43:38.891Z,45
2017-10-28T14:44:51.195Z,45
2017-10-28T14:46:03.499Z,40
2017-10-28T14:47:15.796Z,35
2017-10-28T14:48:28.418Z,35
2017-10-28T14:49:41.087Z,35
2017-10-28T14:50:53.714Z,40
2017-10-28T14:52:05.700Z,40
2017-10-28T14:53:18.023Z,30
2017-10-28T14:54:30.309Z,30
2017-10-28T14:55:42.292Z,30
2017-10-28T14:56:54.587Z,25
2017-10-28T14:58:06.902Z,35
2017-10-28T14:59:19.204Z,35
2017-10-28T15:00:31.848Z,35
2017-10-28T15:01:44.168Z,30
2017-10-28T15:02:56.808Z,20
2017-10-28T15:04:09.432Z,15
2017-10-28T15:05:21.746Z,20
2017-10-28T15:06:34.594Z,35
2017-10-28T15:07:46.892Z,35
2017-10-28T15:08:59.190Z,35
2017-10-28T15:10:11.477Z,35
2017-10-28T15:11:23.752Z,25
2017-10-28T15:12:36.053Z,25
2017-10-28T15:13:48.026Z,30
2017-10-28T15:15:00.313Z,25
2017-10-28T15:16:11.942Z,25
2017-10-28T15:17:24.525Z,25
2017-10-28T15:18:37.130Z,25
2017-10-28T15:19:49.748Z,35
2017-10-28T15:21:01.742Z,20
2017-10-28T15:22:14.020Z,20
2017-10-28T15:23:26.664Z,15
2017-10-28T15:24:39.283Z,15
2017-10-28T15:25:51.907Z,20
2017-10-28T15:27:04.218Z,15
2017-10-28T15:28:16.477Z,10
2017-10-28T15:29:29.093Z,10
2017-10-28T15:30:41.739Z,15
2017-10-28T15:31:54.006Z,15
2017-10-28T15:33:05.984Z,15
2017-10-28T15:34:18.265Z,15
2017-10-28T15:35:30.867Z,10
2017-10-28T15:36:43.492Z,10
2017-10-28T15:37:55.785Z,10
2017-10-28T15:39:08.622Z,5
2017-10-28T15:40:21.230Z,5
2017-10-28T15:41:33.813Z,5
2017-10-28T15:42:45.768Z,5
2017-10-28T15:43:58.069Z,0
2017-10-28T15:45:10.351Z,0
2017-10-28T15:46:22.954Z,0
2017-10-28T15:47:35.270Z,0
2017-10-28T15:48:47.878Z,0
2017-10-28T15:50:00.158Z,0
2017-10-28T15:51:12.144Z,0
2017-10-28T15:52:24.733Z,0
2017-10-28T15:53:37.006Z,0
2017-10-28T15:54:49.301Z,0
2017-10-28T15:56:01.597Z,0
2017-10-28T15:57:13.531Z,0
2017-10-28T15:58:26.153Z,0
2017-10-28T15:59:38.759Z,0
2017-10-28T16:00:51.032Z,0
2017-10-28T16:02:03.627Z,0
2017-10-28T16:03:15.910Z,0
2017-10-28T16:04:28.519Z,0
2017-10-28T16:05:40.835Z,0
2017-10-28T16:06:53.151Z,0
2017-10-28T16:08:05.759Z,0
2017-10-28T16:09:18.368Z,0
2017-10-28T16:10:30.968Z,0
2017-10-28T16:11:43.819Z,0
2017-10-28T16:12:56.116Z,0
2017-10-28T16:14:08.396Z,0
2017-10-28T16:15:20.702Z,0
2017-10-28T16:16:32.995Z,0
2017-10-28T16:17:45.615Z,0
2017-10-28T16:18:57.237Z,0
2017-10-28T16:20:09.861Z,0
2017-10-28T16:21:22.453Z,0
2017-10-28T16:22:34.967Z,0
2017-10-28T16:23:47.569Z,0
2017-10-28T16:25:00.187Z,0
2017-10-28T16:26:11.844Z,0
2017-10-28T16:27:24.452Z,0
2017-10-28T16:28:36.734Z,0
2017-10-28T16:29:49.351Z,0
2017-10-28T16:31:01.971Z,0
2017-10-28T16:32:14.267Z,0
2017-10-28T16:33:26.233Z,0
2017-10-28T16:34:38.872Z,0
2017-10-28T16:35:51.460Z,0
2017-10-28T16:37:03.741Z,0
2017-10-28T16:38:16.040Z,0
2017-10-28T16:39:28.658Z,0
2017-10-28T16:40:41.285Z,0
2017-10-28T16:41:52.957Z,0
2017-10-28T16:43:05.584Z,0
2017-10-28T16:44:17.848Z,0
2017-10-28T16:45:29.862Z,0
2017-10-28T16:46:42.514Z,0
2017-10-28T16:47:55.150Z,0
2017-10-28T16:49:07.131Z,0
2017-10-28T16:50:19.728Z,0
2017-10-28T16:51:31.993Z,0
2017-10-28T16:52:44.298Z,0
2017-10-28T16:53:56.565Z,0
2017-10-28T16:55:08.531Z,0
2017-10-28T16:56:20.823Z,0
2017-10-28T16:57:33.447Z,0
2017-10-28T16:58:45.718Z,0
2017-10-28T16:59:58.318Z,0
2017-10-28T17:01:10.913Z,0
2017-10-28T17:02:23.213Z,0
2017-10-28T17:03:35.843Z,0
2017-10-28T17:04:48.441Z,0
2017-10-28T17:06:00.417Z,0
2017-10-28T17:07:13.066Z,0
2017-10-28T17:08:25.710Z,0
2017-10-28T17:09:38.323Z,0
2017-10-28T17:10:50.274Z,0
2017-10-28T17:12:02.887Z,0
2017-10-28T17:13:15.518Z,0
2017-10-28T17:14:28.128Z,0
2017-10-28T17:15:40.735Z,0
2017-10-28T17:16:53.344Z,0